Time;durP1;ratioP1;P1;durP2;ratioP2;P2;SDS_P1;SDS_P2;PMS_P1;PMS_P2;Temp;Humidity;BMP_temperature;BMP_pressure;BME280_temperature;BME280_humidity;BME280_pressure;Samples;Min_cycle;Max_cycle;Signal;HPM_P1;HPM_P2
2021/05/18 00:01:23;;;;;;;5.28;3.70;;;15.50;78.30;;;;;;4949898;28;95593;-62
2021/05/18 00:03:53;;;;;;;6.22;3.40;;;15.50;78.30;;;;;;4945207;28;103173;-62
2021/05/18 00:06:24;;;;;;;4.40;3.10;;;15.40;78.30;;;;;;4954125;28;96010;-62
2021/05/18 00:11:48;;;;;;;3.17;2.80;;;15.40;78.40;;;;;;4952960;28;96252;-62
2021/05/18 00:14:32;;;;;;;3.97;3.00;;;15.40;78.40;;;;;;4947961;28;95780;-61
2021/05/18 00:17:04;;;;;;;5.28;2.75;;;15.40;78.40;;;;;;4951811;28;96138;-61
2021/05/18 00:19:37;;;;;;;3.40;2.60;;;15.40;78.30;;;;;;4954192;28;95705;-61
2021/05/18 00:22:07;;;;;;;4.05;2.80;;;15.40;78.40;;;;;;4969601;28;95923;-61
2021/05/18 00:24:39;;;;;;;3.30;2.70;;;15.40;78.40;;;;;;4950937;28;95219;-61
2021/05/18 00:27:11;;;;;;;5.10;3.38;;;15.40;78.40;;;;;;4948355;28;95967;-61
2021/05/18 00:29:42;;;;;;;4.43;2.53;;;15.30;78.40;;;;;;4948608;28;97159;-61
2021/05/18 00:32:12;;;;;;;3.80;3.10;;;15.30;78.50;;;;;;4931170;28;97063;-61
2021/05/18 00:34:43;;;;;;;5.90;2.92;;;15.40;78.60;;;;;;4928727;28;95690;-61
2021/05/18 00:37:15;;;;;;;4.00;3.40;;;15.30;78.60;;;;;;4945123;28;96003;-61
2021/05/18 00:39:47;;;;;;;3.53;3.22;;;15.30;78.60;;;;;;4929347;28;103861;-61
2021/05/18 00:42:19;;;;;;;5.67;3.40;;;15.30;78.60;;;;;;4932591;28;95727;-61
2021/05/18 00:44:51;;;;;;;4.05;2.97;;;15.30;78.60;;;;;;4929986;28;101355;-61
2021/05/18 00:47:22;;;;;;;3.20;2.83;;;15.30;78.60;;;;;;4942350;28;95748;-61
2021/05/18 00:49:54;;;;;;;3.45;3.00;;;15.30;78.60;;;;;;4948062;28;97077;-61
2021/05/18 00:52:26;;;;;;;5.35;2.40;;;15.30;78.60;;;;;;4949807;28;98024;-61
2021/05/18 00:55:05;;;;;;;3.80;2.63;;;15.30;78.60;;;;;;4948013;28;95354;-61
2021/05/18 01:00:27;;;;;;;4.50;2.75;;;15.30;78.70;;;;;;4945317;28;96049;-60
2021/05/18 01:02:57;;;;;;;3.47;2.92;;;15.30;78.80;;;;;;4951689;28;101729;-59
2021/05/18 01:08:17;;;;;;;4.88;2.85;;;15.30;78.70;;;;;;4951280;28;95860;-60
2021/05/18 01:10:51;;;;;;;8.40;2.65;;;15.30;78.80;;;;;;4948439;28;96686;-60
2021/05/18 01:13:25;;;;;;;5.38;3.15;;;15.30;78.90;;;;;;4951403;28;95955;-60
2021/05/18 01:15:57;;;;;;;3.33;2.92;;;15.30;78.90;;;;;;4942326;28;95894;-60
2021/05/18 01:18:29;;;;;;;3.38;2.97;;;15.30;78.90;;;;;;4949586;28;95405;-60
2021/05/18 01:21:01;;;;;;;4.20;3.22;;;15.30;79.00;;;;;;4945118;28;98433;-61
2021/05/18 01:23:31;;;;;;;2.97;2.65;;;15.30;79.00;;;;;;4949317;28;96104;-61
2021/05/18 01:26:03;;;;;;;3.08;2.30;;;15.40;78.90;;;;;;4945858;28;96045;-60
2021/05/18 01:28:35;;;;;;;2.75;2.35;;;15.40;78.80;;;;;;4950484;28;95286;-61
2021/05/18 01:31:08;;;;;;;3.55;2.50;;;15.50;78.70;;;;;;4942480;28;98428;-61
2021/05/18 01:33:40;;;;;;;4.43;2.33;;;15.60;78.70;;;;;;4949290;28;95707;-61
2021/05/18 01:36:16;;;;;;;3.67;2.05;;;15.60;78.90;;;;;;4947199;28;95755;-61
2021/05/18 01:39:04;;;;;;;2.80;2.47;;;15.70;78.90;;;;;;4949084;28;95471;-61
2021/05/18 01:44:23;;;;;;;2.38;1.70;;;15.80;78.70;;;;;;4948905;28;98366;-61
2021/05/18 01:46:53;;;;;;;2.90;2.53;;;15.80;78.60;;;;;;4944774;28;96849;-61
2021/05/18 01:49:31;;;;;;;2.65;2.20;;;15.90;78.60;;;;;;4935558;28;95620;-61
2021/05/18 01:52:07;;;;;;;3.63;2.78;;;15.90;78.60;;;;;;4948497;28;98941;-61
2021/05/18 01:54:40;;;;;;;3.20;2.13;;;15.90;78.50;;;;;;4949317;28;96058;-61
2021/05/18 01:59:56;;;;;;;2.30;2.10;;;15.90;78.50;;;;;;4964013;28;96540;-61
2021/05/18 02:02:28;;;;;;;3.65;2.10;;;15.90;78.40;;;;;;4938461;28;96084;-61
2021/05/18 02:05:10;;;;;;;3.15;2.45;;;16.00;78.50;;;;;;4948169;28;97662;-61
2021/05/18 02:07:52;;;;;;;5.25;2.25;;;16.00;78.60;;;;;;4945511;28;96135;-61
2021/05/18 02:10:25;;;;;;;3.78;2.63;;;16.00;78.90;;;;;;4948383;28;95637;-61
2021/05/18 02:13:09;;;;;;;2.90;2.25;;;15.90;78.90;;;;;;4943481;28;98502;-61
2021/05/18 02:15:49;;;;;;;2.95;2.33;;;15.90;78.90;;;;;;4945764;28;96434;-61
2021/05/18 02:21:31;;;;;;;3.05;1.83;;;16.00;79.20;;;;;;4961146;28;95911;-61
2021/05/18 02:26:49;;;;;;;2.28;1.67;;;16.00;79.40;;;;;;4961669;28;96290;-61
2021/05/18 02:29:19;;;;;;;3.30;2.03;;;16.00;79.40;;;;;;4957550;28;95573;-61
2021/05/18 02:31:56;;;;;;;4.82;2.60;;;16.00;79.40;;;;;;4928938;28;95359;-61
2021/05/18 02:34:40;;;;;;;3.92;2.28;;;16.00;79.70;;;;;;4958033;28;96530;-61
2021/05/18 02:37:14;;;;;;;3.05;2.58;;;16.00;79.50;;;;;;4947416;28;97643;-61
2021/05/18 02:39:48;;;;;;;4.53;2.50;;;16.00;79.90;;;;;;4943529;28;95767;-61
2021/05/18 02:42:19;;;;;;;4.40;2.40;;;16.00;79.50;;;;;;4947949;28;96170;-61
2021/05/18 02:50:17;;;;;;;5.15;3.03;;;16.00;79.50;;;;;;4944706;28;95631;-61
2021/05/18 02:52:49;;;;;;;3.63;2.35;;;16.00;79.60;;;;;;4949079;28;95560;-61
2021/05/18 02:55:36;;;;;;;4.35;2.55;;;16.00;79.40;;;;;;4941169;28;97972;-61
2021/05/18 02:58:12;;;;;;;4.97;2.90;;;16.00;79.40;;;;;;4946586;28;98534;-61
2021/05/18 03:00:42;;;;;;;;;;;16.10;79.40;;;;;;4939635;28;100074;-61
2021/05/18 03:03:12;;;;;;;3.70;2.38;;;16.10;79.30;;;;;;4949122;28;95927;-61
2021/05/18 03:05:44;;;;;;;3.00;2.13;;;16.10;79.30;;;;;;4942727;28;96123;-62
2021/05/18 03:08:16;;;;;;;5.63;3.00;;;16.10;79.30;;;;;;4949769;28;96514;-62
2021/05/18 03:10:48;;;;;;;3.20;2.90;;;16.10;79.30;;;;;;4942372;28;95489;-61
2021/05/18 03:13:19;;;;;;;3.70;2.42;;;16.10;79.30;;;;;;4949850;28;95314;-61
2021/05/18 03:15:50;;;;;;;9.02;3.05;;;16.10;79.30;;;;;;4939041;28;96239;-61
2021/05/18 03:18:21;;;;;;;;;;;16.10;79.40;;;;;;4948906;28;95875;-62
2021/05/18 03:20:52;;;;;;;4.50;2.75;;;16.10;79.50;;;;;;4947121;28;96661;-61
2021/05/18 03:23:23;;;;;;;4.13;2.45;;;16.10;79.50;;;;;;4944556;28;96074;-62
2021/05/18 03:25:55;;;;;;;2.22;1.85;;;16.10;79.50;;;;;;4946236;28;96111;-62
2021/05/18 03:28:26;;;;;;;5.43;2.37;;;16.20;79.50;;;;;;4949986;28;95838;-62
2021/05/18 03:36:18;;;;;;;4.63;2.30;;;16.20;79.60;;;;;;4945040;28;96411;-62
2021/05/18 03:38:54;;;;;;;3.42;2.70;;;16.20;79.60;;;;;;4950553;28;95567;-62
2021/05/18 03:41:28;;;;;;;4.32;2.60;;;16.20;79.70;;;;;;4949795;28;96361;-62
2021/05/18 03:44:13;;;;;;;2.78;2.13;;;16.20;79.60;;;;;;4953324;28;95831;-62
2021/05/18 03:58:34;;;;;;;3.28;2.33;;;16.20;79.20;;;;;;4953730;28;95643;-62
2021/05/18 04:03:51;;;;;;;3.05;2.25;;;16.10;79.80;;;;;;4948300;28;95623;-61
2021/05/18 04:17:36;;;;;;;3.90;1.80;;;16.20;80.00;;;;;;4948392;28;95804;-62
2021/05/18 04:25:53;;;;;;;2.55;1.95;;;16.10;80.10;;;;;;4950133;28;95885;-62
2021/05/18 04:49:17;;;;;;;1.75;1.58;;;16.20;79.90;;;;;;4967441;28;96326;-62
2021/05/18 04:54:08;;;;;;;3.47;2.00;;;16.30;79.80;;;;;;4951989;28;96383;-62
2021/05/18 05:02:58;;;;;;;3.42;2.13;;;16.20;79.80;;;;;;4949098;28;95452;-62
2021/05/18 05:08:31;;;;;;;4.03;1.98;;;16.20;79.80;;;;;;4950304;28;96444;-62
2021/05/18 05:16:29;;;;;;;1.67;1.58;;;16.20;79.90;;;;;;4942429;28;96413;-61
2021/05/18 05:19:00;;;;;;;1.88;1.40;;;16.20;79.90;;;;;;4951281;28;95514;-62
2021/05/18 05:21:33;;;;;;;1.90;1.53;;;16.30;79.90;;;;;;4946685;28;95767;-62
2021/05/18 05:24:04;;;;;;;1.83;1.67;;;16.30;79.80;;;;;;4952123;28;95620;-61
2021/05/18 05:26:36;;;;;;;2.10;1.77;;;16.30;79.70;;;;;;4941922;28;96041;-62
2021/05/18 05:29:07;;;;;;;1.95;1.75;;;16.30;79.60;;;;;;4952309;28;95509;-61
2021/05/18 05:31:38;;;;;;;2.10;1.48;;;16.30;79.50;;;;;;4943691;28;106516;-62
2021/05/18 05:34:10;;;;;;;2.45;1.40;;;16.30;79.60;;;;;;4951305;28;95583;-62
2021/05/18 05:36:42;;;;;;;1.70;1.40;;;16.30;79.60;;;;;;4946613;28;95659;-61
2021/05/18 05:39:23;;;;;;;3.95;1.58;;;16.30;79.60;;;;;;4950099;28;96132;-61
2021/05/18 05:41:55;;;;;;;1.98;1.70;;;16.30;79.70;;;;;;4944524;28;95779;-61
2021/05/18 05:44:26;;;;;;;1.65;1.38;;;16.30;79.80;;;;;;4947963;28;95700;-61
2021/05/18 05:46:57;;;;;;;1.42;1.23;;;16.30;79.80;;;;;;4939843;28;97796;-61
2021/05/18 05:49:29;;;;;;;2.50;1.52;;;16.30;79.90;;;;;;4948431;28;97635;-61
2021/05/18 05:52:02;;;;;;;1.13;1.02;;;16.30;79.90;;;;;;4931278;28;95752;-60
2021/05/18 05:54:36;;;;;;;2.08;1.40;;;16.30;79.80;;;;;;4951515;28;95157;-61
2021/05/18 05:57:06;;;;;;;1.75;1.23;;;16.30;79.80;;;;;;4944729;28;96314;-61
2021/05/18 05:59:37;;;;;;;2.78;1.63;;;16.30;79.90;;;;;;4950032;28;96057;-61
2021/05/18 06:02:08;;;;;;;3.60;1.73;;;16.30;79.80;;;;;;4939913;28;95462;-61
2021/05/18 06:04:39;;;;;;;2.17;1.70;;;16.30;79.80;;;;;;4963263;28;95904;-61
2021/05/18 06:07:11;;;;;;;2.70;1.70;;;16.30;79.90;;;;;;4928807;28;96360;-61
2021/05/18 06:09:44;;;;;;;2.90;1.60;;;16.30;79.90;;;;;;4959779;28;95855;-61
2021/05/18 06:12:26;;;;;;;1.83;1.45;;;16.30;80.00;;;;;;4944129;28;95265;-61
2021/05/18 06:37:22;;;;;;;4.55;2.08;;;16.30;79.60;;;;;;4951086;28;95341;-61
2021/05/18 06:42:56;;;;;;;2.92;2.10;;;16.30;79.70;;;;;;4949388;28;97185;-61
2021/05/18 06:48:20;;;;;;;4.25;2.50;;;16.20;79.70;;;;;;4926361;28;95819;-61
2021/05/18 06:50:51;;;;;;;3.38;2.17;;;16.20;79.80;;;;;;4930164;28;96955;-61
2021/05/18 06:53:22;;;;;;;2.72;2.03;;;16.20;79.70;;;;;;4927881;28;97438;-61
2021/05/18 06:55:54;;;;;;;2.42;2.17;;;16.20;79.70;;;;;;4929332;28;95599;-60
2021/05/18 07:01:12;;;;;;;4.28;2.78;;;16.30;79.70;;;;;;4936078;28;96928;-61
2021/05/18 07:03:49;;;;;;;3.75;2.88;;;16.30;79.60;;;;;;4948375;28;95960;-61
2021/05/18 07:06:38;;;;;;;4.63;2.50;;;16.30;79.70;;;;;;4949294;28;95607;-62
2021/05/18 07:09:11;;;;;;;2.88;2.10;;;16.30;79.70;;;;;;4946135;28;96468;-62
2021/05/18 07:11:42;;;;;;;2.97;2.35;;;16.30;79.60;;;;;;4964411;28;96390;-62
2021/05/18 07:14:15;;;;;;;2.95;2.33;;;16.30;79.60;;;;;;4965127;28;98389;-62
2021/05/18 07:16:50;;;;;;;3.47;2.17;;;16.30;79.50;;;;;;4958353;28;95679;-62
2021/05/18 07:19:23;;;;;;;3.55;2.08;;;16.30;79.50;;;;;;4948938;28;95777;-63
2021/05/18 07:21:53;;;;;;;2.35;2.10;;;16.30;79.50;;;;;;4951237;28;96671;-62
2021/05/18 07:24:28;;;;;;;3.10;2.20;;;16.30;79.40;;;;;;4952116;28;95721;-62
2021/05/18 07:27:00;;;;;;;2.05;1.77;;;16.30;79.40;;;;;;4952536;28;95694;-62
2021/05/18 07:29:30;;;;;;;3.85;2.45;;;16.30;79.30;;;;;;4950002;28;95545;-61
2021/05/18 07:32:01;;;;;;;3.42;2.15;;;16.30;79.30;;;;;;4932386;28;96480;-62
2021/05/18 07:34:34;;;;;;;2.22;2.03;;;16.20;79.20;;;;;;4916075;28;95926;-62
2021/05/18 07:37:06;;;;;;;2.25;2.05;;;16.20;79.20;;;;;;4928182;28;95557;-62
2021/05/18 07:39:37;;;;;;;3.33;2.60;;;16.20;79.20;;;;;;4930640;28;95291;-63
2021/05/18 07:42:09;;;;;;;3.08;2.42;;;16.30;79.10;;;;;;4930198;28;96079;-61
2021/05/18 07:44:40;;;;;;;2.45;2.05;;;16.20;79.10;;;;;;4932940;28;95920;-61
2021/05/18 07:47:13;;;;;;;4.38;2.35;;;16.20;79.10;;;;;;4938302;28;95751;-61
2021/05/18 07:49:50;;;;;;;2.95;2.20;;;16.20;79.10;;;;;;4954401;28;95611;-62
2021/05/18 08:06:25;;;;;;;2.92;2.40;;;16.20;79.10;;;;;;4928270;28;96448;-61
2021/05/18 08:08:56;;;;;;;2.30;2.00;;;16.20;79.10;;;;;;4933690;28;95351;-61
2021/05/18 08:11:28;;;;;;;3.03;1.98;;;16.20;79.10;;;;;;4929884;28;95407;-62
2021/05/18 08:14:04;;;;;;;2.03;1.63;;;16.10;79.00;;;;;;4937134;28;97128;-61
2021/05/18 08:17:00;;;;;;;2.50;2.10;;;16.10;79.00;;;;;;4934670;28;97495;-62
2021/05/18 08:22:44;;;;;;;2.90;2.33;;;16.10;79.00;;;;;;4948386;28;95963;-61
2021/05/18 09:48:52;;;;;;;2.15;1.92;;;16.90;79.70;;;;;;4923646;28;102864;-64
2021/05/18 10:34:34;;;;;;;1.92;1.67;;;17.00;79.40;;;;;;4942124;28;96261;-62
2021/05/18 10:37:25;;;;;;;;;;;17.00;79.40;;;;;;4944239;28;96077;-63
2021/05/18 10:40:17;;;;;;;2.05;1.60;;;16.90;79.30;;;;;;4948711;28;95700;-63
2021/05/18 10:43:10;;;;;;;2.25;1.70;;;16.90;79.30;;;;;;4943903;28;100057;-62
2021/05/18 10:46:04;;;;;;;3.38;2.10;;;16.90;79.30;;;;;;4935896;28;96466;-62
2021/05/18 10:48:42;;;;;;;2.72;1.75;;;16.90;79.30;;;;;;4946226;28;96065;-62
2021/05/18 10:51:51;;;;;;;1.90;1.42;;;16.90;79.40;;;;;;4954666;28;95687;-63
2021/05/18 10:54:32;;;;;;;3.03;1.92;;;16.90;79.20;;;;;;4965152;28;96520;-62
2021/05/18 10:57:16;;;;;;;3.10;1.90;;;16.90;79.30;;;;;;4948539;28;96651;-62
2021/05/18 10:59:55;;;;;;;2.10;1.90;;;16.90;79.20;;;;;;4946179;28;95912;-62
2021/05/18 11:02:59;;;;;;;2.42;2.05;;;16.90;79.20;;;;;;4930096;28;95912;-62
2021/05/18 11:05:31;;;;;;;2.28;1.92;;;16.80;79.20;;;;;;4912378;28;96409;-63
2021/05/18 11:08:03;;;;;;;2.92;1.73;;;16.80;78.80;;;;;;4925805;28;96123;-63
2021/05/18 11:10:36;;;;;;;2.15;1.92;;;16.80;78.90;;;;;;4925953;28;95664;-63
2021/05/18 11:13:10;;;;;;;2.45;1.83;;;16.80;78.90;;;;;;4941518;28;96020;-63
2021/05/18 11:15:41;;;;;;;1.98;1.80;;;16.80;79.00;;;;;;4921997;28;96876;-63
2021/05/18 11:18:12;;;;;;;3.35;2.22;;;16.90;79.00;;;;;;4944646;28;96503;-63
2021/05/18 11:26:12;;;;;;;3.25;2.00;;;16.80;78.90;;;;;;4941880;28;96456;-57
2021/05/18 11:28:45;;;;;;;3.25;2.25;;;16.80;79.20;;;;;;4952732;28;96241;-61
2021/05/18 11:31:22;;;;;;;2.45;1.92;;;16.90;79.40;;;;;;4936944;28;95637;-62
2021/05/18 11:33:58;;;;;;;3.05;1.95;;;16.80;79.40;;;;;;4945489;28;96158;-62
2021/05/18 11:36:41;;;;;;;2.40;1.83;;;16.80;79.40;;;;;;4940717;28;96413;-62
2021/05/18 11:39:16;;;;;;;3.35;2.00;;;16.70;79.30;;;;;;4926571;28;97763;-62
2021/05/18 11:41:52;;;;;;;3.10;2.13;;;16.80;79.40;;;;;;4942439;28;95833;-62
2021/05/18 11:44:22;;;;;;;5.10;2.58;;;16.80;79.30;;;;;;4943883;28;96113;-62
2021/05/18 11:46:56;;;;;;;3.72;2.35;;;16.80;79.30;;;;;;4935921;28;96313;-62
2021/05/18 11:49:27;;;;;;;2.67;2.47;;;16.70;79.20;;;;;;4944999;28;98431;-62
2021/05/18 11:51:59;;;;;;;2.85;2.28;;;16.70;79.30;;;;;;4941004;28;95632;-62
2021/05/18 11:54:37;;;;;;;2.80;2.30;;;16.70;79.30;;;;;;4945587;28;95333;-62
2021/05/18 11:57:08;;;;;;;3.72;2.92;;;16.70;79.30;;;;;;4939156;28;96449;-63
2021/05/18 11:59:41;;;;;;;4.72;2.55;;;16.60;79.30;;;;;;4943027;28;95744;-63
2021/05/18 12:02:13;;;;;;;4.28;2.83;;;16.60;79.30;;;;;;4940104;28;95684;-62
2021/05/18 12:04:47;;;;;;;3.95;3.28;;;16.60;79.30;;;;;;4948990;28;95665;-62
2021/05/18 12:07:18;;;;;;;6.07;3.38;;;16.60;79.30;;;;;;4946126;28;96121;-62
2021/05/18 12:09:52;;;;;;;5.10;3.25;;;16.50;79.20;;;;;;4949563;28;96025;-61
2021/05/18 12:12:23;;;;;;;5.10;3.27;;;16.50;79.20;;;;;;4946329;28;95914;-62
2021/05/18 12:14:55;;;;;;;4.82;3.20;;;16.50;79.30;;;;;;4947514;28;96243;-63
2021/05/18 12:17:28;;;;;;;3.85;3.38;;;16.50;79.40;;;;;;4941555;28;99430;-63
2021/05/18 12:20:05;;;;;;;4.22;3.45;;;16.50;79.30;;;;;;4948525;28;95418;-62
2021/05/18 12:22:45;;;;;;;4.75;3.83;;;16.50;79.40;;;;;;4943720;28;104957;-63
2021/05/18 12:25:35;;;;;;;5.22;3.20;;;16.40;79.20;;;;;;4948273;28;95198;-62
2021/05/18 12:28:13;;;;;;;7.25;3.63;;;16.40;79.20;;;;;;4942776;28;95306;-63
2021/05/18 12:30:45;;;;;;;5.00;3.22;;;16.40;79.30;;;;;;4941651;28;96434;-62
2021/05/18 12:33:32;;;;;;;4.72;3.28;;;16.40;79.30;;;;;;4945466;28;101725;-62
2021/05/18 12:36:07;;;;;;;5.78;3.83;;;16.40;79.40;;;;;;4939712;28;95364;-63
2021/05/18 12:38:39;;;;;;;4.88;3.45;;;16.30;79.90;;;;;;4945115;28;96398;-63
2021/05/18 12:41:08;;;;;;;5.65;4.13;;;16.30;79.30;;;;;;4944871;28;97960;-62
2021/05/18 12:43:41;;;;;;;5.43;4.15;;;16.30;79.20;;;;;;4945681;28;98723;-63
2021/05/18 12:46:15;;;;;;;5.65;4.20;;;16.30;79.30;;;;;;4944448;28;95976;-63
2021/05/18 12:48:47;;;;;;;6.68;3.67;;;16.30;79.30;;;;;;4958478;28;96061;-63
2021/05/18 12:51:21;;;;;;;4.43;3.25;;;16.30;79.20;;;;;;4961989;28;95884;-64
2021/05/18 12:54:05;;;;;;;6.63;4.07;;;16.20;79.20;;;;;;4951921;28;95704;-63
2021/05/18 12:56:35;;;;;;;7.10;4.25;;;16.20;79.20;;;;;;4946604;28;95384;-64
2021/05/18 12:59:10;;;;;;;5.45;4.40;;;16.20;79.30;;;;;;4950781;28;99990;-62
2021/05/18 13:01:46;;;;;;;5.28;4.18;;;16.20;79.20;;;;;;4934235;28;95611;-63
2021/05/18 13:04:19;;;;;;;6.20;4.60;;;16.20;79.10;;;;;;4922413;28;95374;-62
2021/05/18 13:06:51;;;;;;;5.32;4.25;;;16.20;79.10;;;;;;4928679;28;95888;-63
2021/05/18 13:09:30;;;;;;;6.60;4.40;;;16.10;79.10;;;;;;4926284;28;96400;-63
2021/05/18 13:12:12;;;;;;;5.80;4.10;;;16.10;79.00;;;;;;4928720;28;95424;-63
2021/05/18 13:14:57;;;;;;;5.80;4.65;;;16.10;79.00;;;;;;4924700;28;97959;-62
2021/05/18 13:17:30;;;;;;;9.32;4.78;;;16.10;79.10;;;;;;4925566;28;97669;-63
2021/05/18 13:20:06;;;;;;;7.30;4.68;;;16.10;79.20;;;;;;4923651;28;96048;-63
2021/05/18 13:22:39;;;;;;;6.63;4.40;;;16.10;79.20;;;;;;4925476;28;97340;-62
2021/05/18 13:27:53;;;;;;;5.90;4.63;;;16.10;79.20;;;;;;4926665;28;95866;-62
2021/05/18 13:30:27;;;;;;;6.25;4.50;;;16.10;79.30;;;;;;4920330;28;96079;-62
2021/05/18 13:32:58;;;;;;;5.93;4.38;;;16.10;79.30;;;;;;4946202;28;96732;-62
2021/05/18 13:35:31;;;;;;;5.03;4.53;;;16.10;79.30;;;;;;4937843;28;95609;-62
2021/05/18 13:38:06;;;;;;;6.13;5.13;;;16.00;79.30;;;;;;4946313;28;95887;-62
2021/05/18 13:40:37;;;;;;;7.15;5.53;;;16.00;79.30;;;;;;4944024;28;96085;-62
2021/05/18 13:43:08;;;;;;;7.43;5.43;;;16.00;79.20;;;;;;4946599;28;96127;-62
2021/05/18 13:45:39;;;;;;;6.47;5.13;;;16.10;79.30;;;;;;4936027;28;97363;-62
2021/05/18 13:48:10;;;;;;;7.73;5.50;;;16.00;79.30;;;;;;4948045;28;95412;-62
2021/05/18 13:50:41;;;;;;;;;;;16.00;79.40;;;;;;4945689;28;96114;-63
2021/05/18 13:53:13;;;;;;;8.80;5.15;;;16.00;79.90;;;;;;4948548;28;95963;-63
2021/05/18 13:55:45;;;;;;;8.10;5.57;;;16.00;79.40;;;;;;4947419;28;96242;-63
2021/05/18 13:58:17;;;;;;;;;;;16.00;79.30;;;;;;4947419;28;96035;-62
2021/05/18 14:00:52;;;;;;;8.15;5.75;;;16.00;79.30;;;;;;4942868;28;96706;-63
2021/05/18 14:03:23;;;;;;;7.55;5.63;;;16.00;79.30;;;;;;4947867;28;95962;-62
2021/05/18 14:05:59;;;;;;;7.95;5.35;;;16.00;79.40;;;;;;4943159;28;97400;-63
2021/05/18 14:08:40;;;;;;;7.32;5.40;;;15.90;79.40;;;;;;4945872;28;95816;-64
2021/05/18 14:11:20;;;;;;;9.55;6.65;;;15.90;79.50;;;;;;4943169;28;96043;-63
2021/05/18 14:13:59;;;;;;;6.38;5.10;;;15.90;79.50;;;;;;4946955;28;95820;-63
2021/05/18 14:16:30;;;;;;;8.63;5.28;;;15.90;79.50;;;;;;4939511;28;95764;-63
2021/05/18 14:19:06;;;;;;;7.55;5.13;;;16.00;79.50;;;;;;4946149;28;96474;-62
2021/05/18 14:21:40;;;;;;;9.13;5.78;;;15.90;79.50;;;;;;4942550;28;96462;-62
2021/05/18 14:24:18;;;;;;;8.38;5.75;;;15.90;79.50;;;;;;4945983;28;96610;-62
2021/05/18 14:26:53;;;;;;;8.15;5.65;;;15.90;79.50;;;;;;4942476;28;95904;-63
2021/05/18 14:29:25;;;;;;;6.55;4.78;;;15.90;79.60;;;;;;4945918;28;95780;-62
2021/05/18 14:31:57;;;;;;;6.68;5.53;;;15.90;79.60;;;;;;4940063;28;96618;-62
2021/05/18 14:34:30;;;;;;;8.60;6.35;;;15.90;79.60;;;;;;4947889;28;95925;-62
2021/05/18 14:37:03;;;;;;;8.50;5.70;;;15.80;80.10;;;;;;4946613;28;95724;-62
2021/05/18 14:45:15;;;;;;;8.45;6.22;;;15.70;79.90;;;;;;4945161;28;97800;-62
2021/05/18 14:56:26;;;;;;;7.43;5.50;;;15.60;80.20;;;;;;4927738;28;97946;-62
2021/05/18 14:58:57;;;;;;;8.80;5.63;;;15.60;80.20;;;;;;4942263;28;102923;-62
2021/05/18 15:01:30;;;;;;;8.57;5.95;;;15.60;80.10;;;;;;4947266;28;95742;-62
2021/05/18 15:04:06;;;;;;;9.57;6.18;;;15.60;80.10;;;;;;4945789;28;96464;-62
2021/05/18 15:06:40;;;;;;;6.72;5.15;;;15.60;80.20;;;;;;4949675;28;96001;-62
2021/05/18 15:09:12;;;;;;;8.55;5.78;;;15.60;80.20;;;;;;4955017;28;95789;-62
2021/05/18 15:11:43;;;;;;;8.40;5.47;;;15.60;80.20;;;;;;4959553;28;95745;-62
2021/05/18 15:14:16;;;;;;;8.18;5.18;;;15.50;80.10;;;;;;4960074;28;96127;-63
2021/05/18 15:16:48;;;;;;;6.90;5.80;;;15.50;80.20;;;;;;4933578;28;95845;-63
2021/05/18 15:19:23;;;;;;;9.00;6.43;;;15.50;80.10;;;;;;4925154;28;96070;-63
2021/05/18 15:21:57;;;;;;;6.57;5.18;;;15.50;80.20;;;;;;4927910;28;96278;-63
2021/05/18 15:24:29;;;;;;;7.88;5.35;;;15.50;80.10;;;;;;4925721;28;97183;-62
2021/05/18 15:27:03;;;;;;;7.32;5.43;;;15.50;80.10;;;;;;4929239;28;95721;-62
2021/05/18 15:29:33;;;;;;;8.18;5.03;;;15.50;80.20;;;;;;4925070;28;95321;-62
2021/05/18 15:32:05;;;;;;;7.15;5.32;;;15.50;80.20;;;;;;4924059;28;96001;-62
2021/05/18 15:34:36;;;;;;;7.30;5.10;;;15.40;80.10;;;;;;4925584;28;96115;-62
2021/05/18 15:37:09;;;;;;;6.85;5.00;;;15.40;80.20;;;;;;4932822;28;95497;-62
2021/05/18 15:39:41;;;;;;;7.53;5.15;;;15.40;80.20;;;;;;4929795;28;95260;-63
2021/05/18 15:42:12;;;;;;;7.07;5.20;;;15.40;80.90;;;;;;4933083;28;98800;-63
2021/05/18 15:44:42;;;;;;;6.35;5.20;;;15.40;80.20;;;;;;4928789;28;97055;-62
2021/05/18 15:47:12;;;;;;;5.97;4.78;;;15.40;80.20;;;;;;4944900;28;96940;-62
2021/05/18 15:49:43;;;;;;;6.68;4.78;;;15.40;80.30;;;;;;4949409;28;96011;-63
2021/05/18 15:52:16;;;;;;;7.22;5.13;;;15.40;80.50;;;;;;4952586;28;95450;-63
2021/05/18 15:54:51;;;;;;;8.20;5.55;;;15.30;80.80;;;;;;4950444;28;95914;-63
2021/05/18 15:57:23;;;;;;;6.63;4.68;;;15.30;80.90;;;;;;4951363;28;96108;-63
2021/05/18 15:59:55;;;;;;;5.80;5.00;;;15.30;80.80;;;;;;4949884;28;96112;-63
2021/05/18 16:02:28;;;;;;;7.15;4.95;;;15.30;80.80;;;;;;4951741;28;95787;-64
2021/05/18 16:05:01;;;;;;;8.52;4.72;;;15.30;80.80;;;;;;4948605;28;98237;-63
2021/05/18 16:07:36;;;;;;;6.63;4.72;;;15.30;80.80;;;;;;4958823;28;96199;-63
2021/05/18 16:10:10;;;;;;;9.75;4.50;;;15.30;80.80;;;;;;4950993;28;95324;-64
2021/05/18 16:12:42;;;;;;;8.00;5.18;;;15.30;80.90;;;;;;4956990;28;95238;-63
2021/05/18 16:15:14;;;;;;;7.13;5.25;;;15.30;81.00;;;;;;4946099;28;96604;-63
2021/05/18 16:17:46;;;;;;;6.13;3.92;;;15.30;81.00;;;;;;4931950;28;95636;-63
2021/05/18 16:20:18;;;;;;;6.68;4.82;;;15.30;81.20;;;;;;4930434;28;95533;-63
2021/05/18 16:22:48;;;;;;;6.10;4.60;;;15.30;81.20;;;;;;4930361;28;96297;-63
2021/05/18 16:25:19;;;;;;;8.95;5.03;;;15.30;81.10;;;;;;4930770;28;96383;-62
2021/05/18 16:27:50;;;;;;;6.82;4.60;;;15.30;81.10;;;;;;4929930;28;96467;-63
2021/05/18 16:30:22;;;;;;;5.35;3.90;;;15.20;81.10;;;;;;4929638;28;95736;-63
2021/05/18 16:32:52;;;;;;;6.03;4.27;;;15.20;81.10;;;;;;4945672;28;98668;-62
2021/05/18 16:35:22;;;;;;;6.55;4.50;;;15.20;81.10;;;;;;4951411;28;96533;-62
2021/05/18 16:37:54;;;;;;;6.75;4.63;;;15.20;81.10;;;;;;4948773;28;98006;-62
2021/05/18 16:40:24;;;;;;;7.30;4.13;;;15.20;81.70;;;;;;4948768;28;95390;-62
2021/05/18 16:42:54;;;;;;;8.07;4.07;;;15.20;81.20;;;;;;4947874;28;95996;-63
2021/05/18 16:45:25;;;;;;;5.68;4.38;;;15.20;81.00;;;;;;4948952;28;96081;-63
2021/05/18 16:47:55;;;;;;;7.90;5.15;;;15.20;81.10;;;;;;4946585;28;102840;-63
2021/05/18 16:50:27;;;;;;;5.95;3.92;;;15.20;81.10;;;;;;4935583;28;95455;-62
2021/05/18 16:52:59;;;;;;;5.13;4.00;;;15.10;81.00;;;;;;4949563;28;95942;-63
2021/05/18 16:55:33;;;;;;;5.93;4.15;;;15.10;81.00;;;;;;4951089;28;96061;-63
2021/05/18 16:58:05;;;;;;;5.55;4.20;;;15.10;80.90;;;;;;4947390;28;95992;-63
2021/05/18 17:00:37;;;;;;;7.22;4.32;;;15.10;81.10;;;;;;4947212;28;95810;-62
2021/05/18 17:03:07;;;;;;;6.00;3.60;;;15.10;81.10;;;;;;4949482;28;95518;-63
2021/05/18 17:05:38;;;;;;;6.28;3.80;;;15.00;81.00;;;;;;4951040;28;96257;-63
2021/05/18 17:08:09;;;;;;;;;;;15.10;81.10;;;;;;4946528;28;95788;-62
2021/05/18 17:10:43;;;;;;;4.22;3.50;;;15.00;81.00;;;;;;4952865;28;95830;-63
2021/05/18 17:13:14;;;;;;;4.18;3.40;;;15.00;81.00;;;;;;4946387;28;95623;-63
2021/05/18 17:15:46;;;;;;;5.00;3.20;;;15.00;80.90;;;;;;4946925;28;96049;-63
2021/05/18 17:18:17;;;;;;;;;;;15.00;81.00;;;;;;4948271;28;98859;-63
2021/05/18 17:20:49;;;;;;;6.03;4.25;;;15.00;81.00;;;;;;4952904;28;95920;-63
2021/05/18 17:23:19;;;;;;;5.50;3.65;;;14.90;80.90;;;;;;4947369;28;95541;-63
2021/05/18 17:25:49;;;;;;;4.35;3.45;;;14.90;80.90;;;;;;4944391;28;95968;-63
2021/05/18 17:28:19;;;;;;;5.63;3.55;;;14.90;80.90;;;;;;4946040;28;97491;-63
2021/05/18 17:30:50;;;;;;;6.78;3.75;;;14.90;80.90;;;;;;4945777;28;96016;-63
2021/05/18 17:33:21;;;;;;;5.30;3.70;;;14.90;80.80;;;;;;4947606;28;95863;-64
2021/05/18 17:35:53;;;;;;;7.00;3.72;;;14.90;80.80;;;;;;4949678;28;98008;-63
2021/05/18 17:38:24;;;;;;;4.88;3.38;;;14.80;80.80;;;;;;4947511;28;96011;-64
2021/05/18 17:40:55;;;;;;;3.80;3.40;;;14.80;80.70;;;;;;4949693;28;95661;-63
2021/05/18 17:43:26;;;;;;;4.75;3.92;;;14.80;80.90;;;;;;4950260;28;95876;-65
2021/05/18 17:46:08;;;;;;;5.63;3.95;;;14.80;80.90;;;;;;4941244;28;96081;-64
2021/05/18 17:48:40;;;;;;;6.10;3.45;;;14.80;80.90;;;;;;4948043;28;95847;-64
2021/05/18 17:51:15;;;;;;;7.30;4.07;;;14.80;80.90;;;;;;4948214;28;95377;-64
2021/05/18 17:53:46;;;;;;;;;;;14.80;80.80;;;;;;4952474;28;95634;-64
2021/05/18 17:56:16;;;;;;;4.03;3.00;;;14.70;80.70;;;;;;4950566;28;96963;-64
2021/05/18 17:58:47;;;;;;;6.07;3.45;;;14.70;80.70;;;;;;4950042;28;95736;-64
2021/05/18 18:01:24;;;;;;;5.65;3.13;;;14.70;80.80;;;;;;4938079;28;95793;-64
2021/05/18 18:03:55;;;;;;;5.85;3.53;;;14.60;80.80;;;;;;4949254;28;95288;-64
2021/05/18 18:06:26;;;;;;;4.95;3.53;;;14.70;80.80;;;;;;4941226;28;96128;-64
2021/05/18 18:08:59;;;;;;;3.55;2.90;;;14.70;80.80;;;;;;4948286;28;95996;-64
2021/05/18 18:11:30;;;;;;;4.45;3.15;;;14.60;80.70;;;;;;4942291;28;95178;-64
2021/05/18 18:14:01;;;;;;;5.03;3.50;;;14.60;80.80;;;;;;4949349;28;95866;-64
2021/05/18 18:16:35;;;;;;;3.53;2.67;;;14.60;80.80;;;;;;4938347;28;96111;-64
2021/05/18 18:19:07;;;;;;;4.35;3.15;;;14.60;80.80;;;;;;4949732;28;96110;-64